Time;durP1;ratioP1;P1;durP2;ratioP2;P2;SDS_P1;SDS_P2;PMS_P1;PMS_P2;Temp;Humidity;BMP_temperature;BMP_pressure;BME280_temperature;BME280_humidity;BME280_pressure;Samples;Min_cycle;Max_cycle;Signal;HPM_P1;HPM_P2
2024/04/16 00:02:14;;;;;;;10.60;1.38;;;;;;;6.03;100.00;100051.66;5354211;26;20640;-58
2024/04/16 00:04:40;;;;;;;7.82;1.70;;;;;;;6.00;100.00;100041.13;5354482;26;20321;-58
2024/04/16 00:07:05;;;;;;;6.75;1.63;;;;;;;5.81;100.00;100032.94;5354059;26;20348;-60
2024/04/16 00:09:30;;;;;;;9.95;1.80;;;;;;;6.04;100.00;100025.00;5354013;26;20231;-59
2024/04/16 00:11:56;;;;;;;9.25;1.70;;;;;;;5.94;100.00;100014.72;5352932;26;20231;-59
2024/04/16 00:14:21;;;;;;;5.97;1.40;;;;;;;6.20;100.00;100022.66;5354250;26;20581;-59
2024/04/16 00:16:47;;;;;;;13.43;1.95;;;;;;;6.10;100.00;100015.94;5351418;26;20231;-59
2024/04/16 00:19:12;;;;;;;9.68;2.42;;;;;;;6.37;100.00;100010.47;5353913;26;20243;-58
2024/04/16 00:21:37;;;;;;;14.32;2.33;;;;;;;6.31;100.00;100011.59;5353193;26;20274;-59
2024/04/16 00:24:03;;;;;;;19.58;1.90;;;;;;;6.32;100.00;99999.16;5354532;26;20243;-59
2024/04/16 00:26:28;;;;;;;11.00;2.25;;;;;;;6.33;100.00;100004.41;5352629;26;20652;-58
2024/04/16 00:28:54;;;;;;;10.40;4.05;;;;;;;6.37;100.00;100008.69;5352650;26;20269;-59
2024/04/16 00:31:19;;;;;;;11.32;1.85;;;;;;;6.49;100.00;100009.13;5352662;26;20227;-59
2024/04/16 00:33:44;;;;;;;7.30;1.38;;;;;;;6.34;100.00;100000.84;5352620;26;20231;-59
2024/04/16 00:36:10;;;;;;;5.47;1.40;;;;;;;6.37;100.00;99997.16;5351827;26;20311;-59
2024/04/16 00:38:35;;;;;;;6.55;1.65;;;;;;;6.01;100.00;99965.78;5351187;26;20237;-59
2024/04/16 00:41:00;;;;;;;4.18;1.08;;;;;;;6.15;100.00;99981.19;5350922;26;20281;-59
2024/04/16 00:43:26;;;;;;;10.00;3.17;;;;;;;6.32;100.00;99978.72;5351288;26;20336;-59
2024/04/16 00:45:54;;;;;;;10.50;2.78;;;;;;;6.03;100.00;99932.91;5328036;26;20279;-58
2024/04/16 00:48:24;;;;;;;21.73;2.63;;;;;;;6.15;100.00;99979.38;5350742;26;20455;-59
2024/04/16 00:50:49;;;;;;;18.05;2.63;;;;;;;6.25;100.00;99970.13;5377449;26;20251;-58
2024/04/16 00:53:15;;;;;;;12.43;2.17;;;;;;;6.56;100.00;99954.75;5350442;26;20741;-58
2024/04/16 00:55:41;;;;;;;10.00;1.90;;;;;;;6.42;100.00;99958.81;5350079;26;20235;-59
2024/04/16 00:58:08;;;;;;;11.15;2.60;;;;;;;6.45;100.00;99941.00;5349592;26;20569;-58
2024/04/16 01:00:33;;;;;;;14.63;2.05;;;;;;;6.38;100.00;99967.84;5350373;26;20247;-58
2024/04/16 01:02:59;;;;;;;19.13;2.20;;;;;;;6.30;100.00;99955.81;5350380;26;20255;-59
2024/04/16 01:05:25;;;;;;;12.00;1.80;;;;;;;6.32;100.00;99952.13;5350326;26;20739;-59
2024/04/16 01:07:50;;;;;;;3.45;1.40;;;;;;;6.27;100.00;99967.41;5350665;26;20243;-59
2024/04/16 01:10:16;;;;;;;10.27;1.10;;;;;;;6.02;100.00;99944.44;5350040;26;20740;-58
2024/04/16 01:12:42;;;;;;;4.57;1.50;;;;;;;6.24;100.00;99947.13;5350325;26;20251;-59
2024/04/16 01:15:07;;;;;;;6.03;1.40;;;;;;;6.42;100.00;99939.34;5349881;26;20242;-58
2024/04/16 01:17:33;;;;;;;8.63;1.80;;;;;;;6.22;100.00;99937.50;5350264;26;20270;-59
2024/04/16 01:19:58;;;;;;;12.65;3.00;;;;;;;6.41;100.00;99933.13;5349804;26;20239;-59
2024/04/16 01:22:24;;;;;;;12.05;2.03;;;;;;;6.53;100.00;99922.94;5350644;26;20285;-58
2024/04/16 01:24:49;;;;;;;13.73;1.98;;;;;;;6.53;100.00;99925.59;5350702;26;20348;-58
2024/04/16 01:27:14;;;;;;;10.82;2.15;;;;;;;6.52;100.00;99923.88;5355463;26;20286;-58
2024/04/16 01:29:40;;;;;;;17.52;2.50;;;;;;;6.74;100.00;99907.88;5324673;26;20273;-58
2024/04/16 01:32:05;;;;;;;13.93;2.55;;;;;;;6.70;100.00;99912.44;5340058;26;20248;-57
2024/04/16 01:34:31;;;;;;;17.73;2.75;;;;;;;6.69;100.00;99899.22;5346046;26;20374;-60
2024/04/16 01:36:56;;;;;;;11.57;2.33;;;;;;;6.69;100.00;99905.41;5352848;26;20291;-58
2024/04/16 01:39:21;;;;;;;9.98;2.25;;;;;;;6.99;100.00;99905.03;5351273;26;20231;-58
2024/04/16 01:41:47;;;;;;;13.30;1.85;;;;;;;6.94;100.00;99905.22;5352792;26;20729;-58
2024/04/16 01:44:12;;;;;;;7.25;1.92;;;;;;;6.80;100.00;99891.66;5351945;26;20243;-59
2024/04/16 01:46:37;;;;;;;12.48;1.90;;;;;;;6.83;100.00;99896.84;5351991;26;20294;-58
2024/04/16 01:49:03;;;;;;;9.43;1.70;;;;;;;6.94;100.00;99889.25;5351710;26;20235;-58
2024/04/16 01:51:28;;;;;;;13.63;2.88;;;;;;;7.03;100.00;99892.44;5351623;26;20344;-59
2024/04/16 01:53:54;;;;;;;8.23;2.35;;;;;;;7.02;100.00;99882.72;5351243;26;20345;-58
2024/04/16 01:56:19;;;;;;;17.40;3.00;;;;;;;7.10;100.00;99884.09;5350827;26;20231;-59
2024/04/16 01:58:44;;;;;;;18.98;3.75;;;;;;;7.13;100.00;99875.13;5352605;26;20728;-59
2024/04/16 02:01:10;;;;;;;16.40;2.72;;;;;;;7.30;100.00;99871.69;5352341;26;20239;-58
2024/04/16 02:03:35;;;;;;;11.00;2.22;;;;;;;7.34;100.00;99859.13;5351469;26;20267;-59
2024/04/16 02:06:05;;;;;;;10.88;2.53;;;;;;;7.13;100.00;99861.81;5351561;26;20736;-58
2024/04/16 02:08:33;;;;;;;10.55;2.13;;;;;;;7.19;100.00;99860.69;5351158;26;20247;-59
2024/04/16 02:10:59;;;;;;;9.52;2.00;;;;;;;7.12;100.00;99857.41;5351131;26;20675;-59
2024/04/16 02:13:25;;;;;;;10.40;2.13;;;;;;;7.14;100.00;99840.44;5350131;26;20247;-59
2024/04/16 02:15:51;;;;;;;19.95;3.28;;;;;;;7.28;100.00;99839.81;5352032;26;20774;-58
2024/04/16 02:18:17;;;;;;;6.10;1.88;;;;;;;7.27;100.00;99854.09;5350863;26;20239;-60
2024/04/16 02:20:43;;;;;;;4.78;1.33;;;;;;;6.91;100.00;99840.59;5350862;26;20709;-59
2024/04/16 02:23:08;;;;;;;14.07;1.92;;;;;;;6.87;100.00;99833.69;5350657;26;20466;-59
2024/04/16 02:25:34;;;;;;;9.38;2.10;;;;;;;6.97;100.00;99825.22;5351286;26;20744;-59
2024/04/16 02:27:59;;;;;;;5.93;1.85;;;;;;;6.97;100.00;99811.03;5350416;26;20322;-59
2024/04/16 02:30:24;;;;;;;8.13;2.05;;;;;;;7.14;100.00;99799.63;5350291;26;20231;-59
2024/04/16 02:32:50;;;;;;;12.20;2.45;;;;;;;7.24;100.00;99808.06;5350652;26;20231;-59
2024/04/16 02:35:15;;;;;;;13.57;2.92;;;;;;;7.22;100.00;99817.94;5350370;26;20236;-59
2024/04/16 02:37:41;;;;;;;18.67;2.55;;;;;;;7.15;100.00;99819.97;5349579;26;20292;-59
2024/04/16 02:40:07;;;;;;;22.30;3.92;;;;;;;7.17;100.00;99819.91;5350684;26;20617;-59
2024/04/16 02:42:32;;;;;;;11.20;3.55;;;;;;;6.78;100.00;99825.19;5350713;26;20243;-61
2024/04/16 02:44:57;;;;;;;10.40;2.22;;;;;;;6.51;100.00;99821.03;5351185;26;20234;-59
2024/04/16 02:47:23;;;;;;;12.88;2.38;;;;;;;6.72;100.00;99825.44;5350640;26;20238;-59
2024/04/16 02:49:48;;;;;;;12.57;2.03;;;;;;;6.70;100.00;99815.78;5349837;26;20250;-59
2024/04/16 02:52:13;;;;;;;7.10;1.90;;;;;;;6.48;100.00;99791.88;5351014;26;20247;-59
2024/04/16 02:54:39;;;;;;;3.75;1.52;;;;;;;6.45;100.00;99797.34;5351201;26;20886;-60
2024/04/16 02:57:04;;;;;;;9.93;2.10;;;;;;;6.60;100.00;99799.38;5351409;26;20321;-59
2024/04/16 02:59:30;;;;;;;4.80;1.70;;;;;;;6.53;100.00;99784.59;5351440;26;20231;-59
2024/04/16 03:01:55;;;;;;;15.00;1.73;;;;;;;6.36;100.00;99786.19;5350524;26;20276;-59
2024/04/16 03:04:20;;;;;;;6.63;1.80;;;;;;;6.23;100.00;99784.97;5398232;26;20772;-61
2024/04/16 03:06:46;;;;;;;7.00;1.80;;;;;;;6.28;100.00;99769.69;5350124;26;20239;-62
2024/04/16 03:09:11;;;;;;;14.27;2.00;;;;;;;6.12;100.00;99720.75;5350211;26;20320;-59
2024/04/16 03:11:36;;;;;;;15.82;2.17;;;;;;;6.43;100.00;99762.81;5348475;26;20551;-58
2024/04/16 03:14:02;;;;;;;7.03;1.92;;;;;;;6.35;100.00;99762.31;5349016;26;20335;-59
2024/04/16 03:16:27;;;;;;;7.32;1.63;;;;;;;6.42;100.00;99753.13;5347611;26;20246;-60
2024/04/16 03:18:53;;;;;;;9.75;1.98;;;;;;;6.38;100.00;99736.44;5347865;26;20277;-59
2024/04/16 03:21:18;;;;;;;16.40;2.53;;;;;;;6.36;100.00;99758.72;5347676;26;20712;-59
2024/04/16 03:23:44;;;;;;;12.52;2.22;;;;;;;6.42;100.00;99738.03;5347760;26;20287;-60
2024/04/16 03:26:09;;;;;;;17.42;2.67;;;;;;;6.30;100.00;99733.25;5347498;26;20240;-62
2024/04/16 03:28:34;;;;;;;16.27;2.78;;;;;;;6.35;100.00;99728.59;5348269;26;20826;-60
2024/04/16 03:31:00;;;;;;;14.77;3.05;;;;;;;6.31;100.00;99727.00;5348258;26;20266;-60
2024/04/16 03:33:25;;;;;;;17.13;2.78;;;;;;;6.40;100.00;99712.41;5348698;26;20744;-60
2024/04/16 03:35:54;;;;;;;16.58;3.28;;;;;;;6.46;100.00;99711.28;5348327;26;20340;-59
2024/04/16 03:38:20;;;;;;;20.20;4.43;;;;;;;6.42;100.00;99700.78;5347687;26;20322;-59
2024/04/16 03:41:01;;;;;;;12.52;2.78;;;;;;;6.59;100.00;99705.34;5348692;26;20235;-59
2024/04/16 03:43:27;;;;;;;27.92;3.65;;;;;;;6.63;100.00;99708.75;5349550;26;20314;-59
2024/04/16 03:45:53;;;;;;;12.23;2.60;;;;;;;6.68;100.00;99685.47;5350872;26;20235;-58
2024/04/16 03:48:19;;;;;;;17.63;2.35;;;;;;;6.67;100.00;99682.88;5352569;26;20492;-58
2024/04/16 03:50:45;;;;;;;16.13;2.55;;;;;;;6.70;100.00;99693.38;5351111;26;20315;-58
2024/04/16 03:53:10;;;;;;;14.80;2.95;;;;;;;6.69;100.00;99673.00;5350220;26;20239;-59
2024/04/16 03:55:36;;;;;;;20.73;2.83;;;;;;;6.90;100.00;99673.81;5348489;26;20239;-60
2024/04/16 03:58:02;;;;;;;11.90;3.08;;;;;;;6.91;100.00;99662.25;5348943;26;20239;-59
2024/04/16 04:03:16;;;;;;;15.45;3.03;;;;;;;7.12;100.00;99663.88;5352429;26;20273;-59
2024/04/16 04:05:42;;;;;;;19.17;3.75;;;;;;;7.21;100.00;99661.72;5353337;26;20281;-59
2024/04/16 04:08:08;;;;;;;10.65;2.30;;;;;;;7.04;100.00;99658.03;5353780;26;20333;-60
2024/04/16 04:10:33;;;;;;;17.50;3.13;;;;;;;7.13;100.00;99657.59;5353869;26;20251;-59
2024/04/16 04:12:58;;;;;;;13.25;3.13;;;;;;;7.29;100.00;99668.41;5353612;26;20345;-60
2024/04/16 04:15:24;;;;;;;13.55;3.75;;;;;;;7.23;100.00;99655.38;5352995;26;20246;-59
2024/04/16 04:17:49;;;;;;;26.73;5.03;;;;;;;7.26;100.00;99671.22;5351937;26;20281;-60
2024/04/16 04:20:14;;;;;;;25.40;5.28;;;;;;;7.39;100.00;99666.13;5351314;26;20332;-59
2024/04/16 04:22:40;;;;;;;31.30;5.95;;;;;;;7.54;100.00;99687.66;5406834;26;20243;-60
2024/04/16 04:25:05;;;;;;;20.50;5.82;;;;;;;7.55;100.00;99689.38;5350474;26;20286;-60
2024/04/16 04:27:31;;;;;;;20.45;5.47;;;;;;;7.48;100.00;99692.34;5351266;26;20239;-60
2024/04/16 04:29:56;;;;;;;29.42;4.63;;;;;;;7.64;100.00;99681.81;5350730;26;20235;-60
2024/04/16 04:32:21;;;;;;;24.67;5.43;;;;;;;7.68;100.00;99711.81;5351108;26;20756;-59
2024/04/16 04:34:47;;;;;;;33.63;6.20;;;;;;;7.70;100.00;99715.25;5350507;26;20235;-59
2024/04/16 04:37:12;;;;;;;20.95;4.40;;;;;;;7.65;100.00;99722.63;5350968;26;20239;-59
2024/04/16 04:39:37;;;;;;;22.00;5.10;;;;;;;7.69;100.00;99718.88;5350044;26;20277;-60
2024/04/16 04:42:03;;;;;;;23.25;5.63;;;;;;;7.66;100.00;99724.38;5350828;26;20239;-58
2024/04/16 04:44:28;;;;;;;25.38;4.75;;;;;;;7.65;100.00;99742.13;5350348;26;20282;-59
2024/04/16 04:46:54;;;;;;;22.75;4.90;;;;;;;7.58;100.00;99735.41;5351653;26;20239;-60
2024/04/16 04:49:19;;;;;;;25.88;4.28;;;;;;;7.44;100.00;99759.16;5351761;26;20235;-60
2024/04/16 04:51:44;;;;;;;16.40;4.05;;;;;;;7.49;100.00;99763.34;5350999;26;20624;-60
2024/04/16 04:54:10;;;;;;;21.95;5.97;;;;;;;7.30;100.00;99754.50;5350411;26;20231;-61
2024/04/16 04:56:35;;;;;;;19.55;4.30;;;;;;;7.15;100.00;99761.38;5349824;26;20239;-62
2024/04/16 04:59:01;;;;;;;20.00;4.32;;;;;;;7.03;100.00;99778.81;5349205;26;20235;-62
2024/04/16 05:01:26;;;;;;;15.73;3.42;;;;;;;7.12;100.00;99777.50;5350150;26;20243;-59
2024/04/16 05:03:51;;;;;;;18.30;3.13;;;;;;;7.02;100.00;99779.75;5349325;26;20273;-59
2024/04/16 05:06:17;;;;;;;19.85;4.05;;;;;;;7.10;100.00;99772.25;5349839;26;20246;-60
2024/04/16 05:08:42;;;;;;;27.85;4.70;;;;;;;7.18;100.00;99784.38;5349482;26;20239;-60
2024/04/16 05:11:07;;;;;;;24.05;5.53;;;;;;;7.26;100.00;99779.56;5342098;26;20236;-60
2024/04/16 05:13:33;;;;;;;20.17;4.75;;;;;;;7.34;100.00;99797.84;5344366;26;20235;-60
2024/04/16 05:15:58;;;;;;;30.88;5.97;;;;;;;7.42;100.00;99795.69;5350402;26;20599;-60
2024/04/16 05:18:23;;;;;;;23.33;5.85;;;;;;;7.62;100.00;99800.06;5349692;26;20235;-60
2024/04/16 05:20:49;;;;;;;29.08;5.32;;;;;;;7.48;100.00;99793.59;5349010;26;20589;-60
2024/04/16 05:23:14;;;;;;;22.08;4.35;;;;;;;7.46;100.00;99781.28;5347610;26;20239;-60
2024/04/16 05:25:40;;;;;;;21.48;5.45;;;;;;;7.49;100.00;99791.81;5348212;26;20368;-59
2024/04/16 05:28:05;;;;;;;17.67;4.55;;;;;;;7.60;100.00;99812.63;5347900;26;20235;-60
2024/04/16 05:30:30;;;;;;;20.80;4.60;;;;;;;7.65;100.00;99832.75;5348376;26;20281;-60
2024/04/16 05:32:56;;;;;;;25.27;4.38;;;;;;;7.67;100.00;99838.03;5349336;26;20286;-60
2024/04/16 05:35:22;;;;;;;23.60;4.78;;;;;;;7.74;100.00;99823.47;5349742;26;20703;-60
2024/04/16 05:37:47;;;;;;;26.77;5.03;;;;;;;7.70;100.00;99826.34;5351281;26;20282;-60
2024/04/16 05:40:14;;;;;;;29.52;5.70;;;;;;;7.78;100.00;99835.72;5353332;26;20235;-60
2024/04/16 05:42:40;;;;;;;27.52;5.00;;;;;;;7.68;100.00;99842.44;5353696;26;20377;-61
2024/04/16 05:45:06;;;;;;;22.33;5.45;;;;;;;7.78;100.00;99840.19;5350503;26;20303;-60
2024/04/16 05:47:31;;;;;;;19.63;4.60;;;;;;;7.63;100.00;99853.31;5352108;26;20239;-62
2024/04/16 05:49:59;;;;;;;19.45;4.78;;;;;;;7.62;100.00;99870.22;5354489;26;20235;-59
2024/04/16 05:52:25;;;;;;;34.03;5.30;;;;;;;7.73;100.00;99872.38;5352257;26;20239;-59
2024/04/16 05:54:50;;;;;;;14.45;3.83;;;;;;;7.79;100.00;99871.25;5352142;26;20236;-60
2024/04/16 05:57:15;;;;;;;23.40;4.10;;;;;;;7.85;100.00;99860.28;5350006;26;20243;-60
2024/04/16 05:59:41;;;;;;;15.27;4.78;;;;;;;7.72;100.00;99873.34;5352206;26;20246;-58
2024/04/16 06:02:06;;;;;;;23.67;4.15;;;;;;;7.89;100.00;99869.88;5352345;26;20751;-59
2024/04/16 06:04:31;;;;;;;17.90;4.22;;;;;;;7.88;100.00;99880.63;5352102;26;20243;-59
2024/04/16 06:06:57;;;;;;;24.40;5.63;;;;;;;7.86;100.00;99873.53;5352236;26;20250;-60
2024/04/16 06:09:22;;;;;;;33.05;5.13;;;;;;;7.91;100.00;99881.31;5352494;26;20281;-60
2024/04/16 06:11:47;;;;;;;25.60;5.50;;;;;;;7.79;100.00;99876.56;5352332;26;20810;-60
2024/04/16 06:14:14;;;;;;;27.58;4.90;;;;;;;7.84;100.00;99888.75;5352311;26;20243;-60
2024/04/16 06:16:40;;;;;;;16.77;3.58;;;;;;;7.89;100.00;99874.31;5352524;26;20239;-60
2024/04/16 06:19:05;;;;;;;21.38;4.07;;;;;;;7.83;100.00;99888.84;5343848;26;20283;-59
2024/04/16 06:21:30;;;;;;;22.80;4.78;;;;;;;8.10;100.00;99904.44;5344950;26;20243;-60
2024/04/16 06:23:56;;;;;;;20.90;4.80;;;;;;;7.88;100.00;99893.94;5351877;26;20313;-60
2024/04/16 06:26:22;;;;;;;23.70;5.47;;;;;;;7.88;100.00;99907.28;5350566;26;20247;-60
2024/04/16 06:28:47;;;;;;;21.80;4.10;;;;;;;7.91;100.00;99902.66;5353791;26;20351;-60
2024/04/16 06:31:13;;;;;;;22.15;5.90;;;;;;;7.92;100.00;99908.88;5352637;26;20235;-60
2024/04/16 06:33:38;;;;;;;20.20;4.53;;;;;;;8.02;100.00;99910.16;5352572;26;20239;-60
2024/04/16 06:36:04;;;;;;;18.77;4.93;;;;;;;7.90;100.00;99913.41;5353710;26;20277;-60
2024/04/16 06:38:31;;;;;;;19.92;4.20;;;;;;;7.85;100.00;99903.78;5351574;26;20831;-60
2024/04/16 06:40:56;;;;;;;11.65;3.67;;;;;;;7.97;100.00;99918.38;5351749;26;20239;-58
2024/04/16 06:43:22;;;;;;;20.35;4.65;;;;;;;7.94;100.00;99913.19;5350019;26;20739;-59
2024/04/16 06:45:47;;;;;;;17.17;3.72;;;;;;;8.01;100.00;99914.63;5350239;26;20239;-60
2024/04/16 06:48:13;;;;;;;27.05;5.45;;;;;;;8.04;100.00;99913.63;5348745;26;20333;-60
2024/04/16 06:50:39;;;;;;;27.48;6.72;;;;;;;7.97;100.00;99931.69;5348461;26;20278;-61
2024/04/16 06:53:04;;;;;;;15.25;4.38;;;;;;;7.94;100.00;99939.84;5346221;26;20239;-61
2024/04/16 06:55:30;;;;;;;28.30;5.53;;;;;;;8.02;100.00;99918.16;5348651;26;20281;-60
2024/04/16 06:57:57;;;;;;;27.17;4.93;;;;;;;8.02;100.00;99947.47;5347819;26;20317;-61
2024/04/16 07:00:23;;;;;;;19.52;4.45;;;;;;;7.89;100.00;99955.19;5348094;26;20294;-61
2024/04/16 07:02:48;;;;;;;20.83;4.85;;;;;;;7.77;100.00;99948.63;5347549;26;20235;-60
2024/04/16 07:05:14;;;;;;;22.73;5.32;;;;;;;7.78;100.00;99973.47;5348141;26;20247;-61
2024/04/16 07:07:39;;;;;;;13.02;3.45;;;;;;;7.59;100.00;99998.28;5347931;26;20316;-61
2024/04/16 07:10:05;;;;;;;15.75;3.92;;;;;;;7.27;100.00;99989.94;5348690;26;20231;-59
2024/04/16 07:12:30;;;;;;;21.52;3.95;;;;;;;7.23;100.00;100006.09;5348866;26;20282;-60
2024/04/16 07:14:56;;;;;;;23.17;3.22;;;;;;;7.22;100.00;100009.69;5347469;26;20235;-60
2024/04/16 07:17:22;;;;;;;17.60;4.72;;;;;;;7.18;100.00;100014.28;5347495;26;20282;-60
2024/04/16 07:19:48;;;;;;;14.48;4.65;;;;;;;7.09;100.00;100010.22;5346455;26;20251;-60
2024/04/16 07:22:14;;;;;;;26.55;3.80;;;;;;;7.27;100.00;100029.00;5346794;26;20325;-60
2024/04/16 07:24:39;;;;;;;20.42;5.03;;;;;;;7.43;100.00;100038.09;5346889;26;20298;-60
2024/04/16 07:27:04;;;;;;;21.27;3.83;;;;;;;7.35;100.00;100042.00;5347494;26;20293;-61
2024/04/16 07:29:30;;;;;;;29.80;4.95;;;;;;;7.42;100.00;100052.31;5351256;26;20279;-60
2024/04/16 07:31:55;;;;;;;24.48;5.85;;;;;;;7.36;100.00;100049.94;5351711;26;20235;-60
2024/04/16 07:34:22;;;;;;;17.20;3.88;;;;;;;7.44;100.00;100062.91;5350983;26;20238;-60
2024/04/16 07:36:47;;;;;;;16.85;3.15;;;;;;;7.85;100.00;100052.25;5351416;26;20298;-60
2024/04/16 07:39:13;;;;;;;11.30;3.58;;;;;;;7.95;100.00;100064.25;5347961;26;20344;-61
2024/04/16 07:41:38;;;;;;;11.45;2.55;;;;;;;7.89;100.00;100047.66;5328349;26;20243;-61
2024/04/16 07:44:03;;;;;;;14.20;2.63;;;;;;;8.02;100.00;100055.06;5350727;26;20356;-61
2024/04/16 07:46:29;;;;;;;17.20;4.03;;;;;;;8.43;100.00;100086.09;5350451;26;20239;-61
2024/04/16 07:48:54;;;;;;;8.45;2.38;;;;;;;8.35;100.00;100088.25;5350250;26;20235;-61
2024/04/16 07:51:20;;;;;;;16.23;2.05;;;;;;;8.40;100.00;100075.56;5351149;26;20231;-61
2024/04/16 07:53:45;;;;;;;13.80;1.70;;;;;;;8.50;100.00;100084.03;5349693;26;20642;-61
2024/04/16 07:56:10;;;;;;;13.75;2.53;;;;;;;8.37;100.00;100073.03;5330467;26;20247;-61
2024/04/16 07:58:36;;;;;;;8.38;1.58;;;;;;;8.53;100.00;100094.56;5329021;26;20796;-61
2024/04/16 08:01:01;;;;;;;9.20;2.10;;;;;;;8.62;100.00;100102.16;5351399;26;20282;-61
2024/04/16 08:03:28;;;;;;;13.20;2.67;;;;;;;8.65;100.00;100093.13;5346560;26;20294;-61
2024/04/16 08:05:53;;;;;;;6.97;1.80;;;;;;;9.36;100.00;100109.28;5351298;26;20250;-60
2024/04/16 08:08:19;;;;;;;4.07;1.75;;;;;;;9.77;100.00;100110.78;5353325;26;20685;-61
2024/04/16 08:10:44;;;;;;;11.48;2.17;;;;;;;10.04;100.00;100110.31;5352618;26;20277;-61
2024/04/16 08:13:10;;;;;;;4.65;1.50;;;;;;;10.27;100.00;100117.97;5352898;26;20239;-61
2024/04/16 08:15:35;;;;;;;6.72;1.88;;;;;;;10.47;98.56;100113.41;5352957;26;20239;-61
2024/04/16 08:18:00;;;;;;;8.63;1.40;;;;;;;10.08;98.10;100096.69;5351949;26;20235;-61
2024/04/16 08:20:26;;;;;;;4.82;1.30;;;;;;;10.29;96.46;100136.63;5351409;26;20344;-60
2024/04/16 08:22:53;;;;;;;5.32;1.45;;;;;;;10.75;96.75;100130.63;5351572;26;20239;-62
2024/04/16 08:25:18;;;;;;;5.53;1.33;;;;;;;10.63;93.95;100129.50;5352684;26;20236;-61
2024/04/16 08:27:43;;;;;;;9.57;1.92;;;;;;;9.82;98.14;100146.22;5351452;26;20325;-62
2024/04/16 08:30:09;;;;;;;13.57;2.70;;;;;;;10.29;99.87;100161.59;5353809;26;20336;-60
2024/04/16 08:32:35;;;;;;;10.40;2.38;;;;;;;10.69;95.93;100161.31;5352268;26;20243;-60
2024/04/16 08:35:00;;;;;;;14.40;1.92;;;;;;;10.87;93.84;100156.72;5353426;26;20239;-60
2024/04/16 08:37:26;;;;;;;8.80;2.10;;;;;;;10.83;94.94;100163.22;5354105;26;20243;-59
2024/04/16 08:39:51;;;;;;;9.85;2.15;;;;;;;10.68;95.46;100176.50;5351043;26;20247;-59
2024/04/16 08:42:17;;;;;;;10.00;2.55;;;;;;;10.37;98.24;100184.44;5348828;26;20643;-60
2024/04/16 08:44:44;;;;;;;4.25;1.50;;;;;;;9.94;99.08;100175.00;5350204;26;20277;-59
2024/04/16 08:47:11;;;;;;;8.07;1.88;;;;;;;9.96;100.00;100186.47;5350634;26;20622;-60
2024/04/16 08:49:36;;;;;;;8.05;1.80;;;;;;;10.05;100.00;100214.59;5337697;26;20266;-60
2024/04/16 08:52:02;;;;;;;7.40;2.63;;;;;;;10.18;100.00;100199.63;5348850;26;20238;-60
2024/04/16 08:54:29;;;;;;;7.63;1.73;;;;;;;10.25;100.00;100207.34;5352713;26;20235;-59
2024/04/16 08:56:54;;;;;;;7.72;1.83;;;;;;;10.39;99.25;100231.63;5352127;26;20255;-60
2024/04/16 08:59:19;;;;;;;6.53;2.05;;;;;;;9.78;99.20;100232.88;5352984;26;20728;-59
2024/04/16 09:01:47;;;;;;;4.78;1.80;;;;;;;9.67;100.00;100237.91;5352860;26;20261;-61
2024/04/16 09:04:15;;;;;;;3.72;1.67;;;;;;;9.51;100.00;100252.03;5353267;26;20255;-59
2024/04/16 09:06:41;;;;;;;7.22;1.85;;;;;;;9.47;100.00;100253.09;5354908;26;20255;-60
2024/04/16 09:09:07;;;;;;;14.55;1.83;;;;;;;10.27;100.00;100267.88;5353473;26;20286;-61
2024/04/16 09:11:32;;;;;;;5.07;1.77;;;;;;;10.48;100.00;100265.94;5354795;26;20779;-60
2024/04/16 09:13:57;;;;;;;6.55;2.10;;;;;;;11.13;97.29;100254.44;5355049;26;20243;-58
2024/04/16 09:16:23;;;;;;;8.25;2.20;;;;;;;11.40;94.23;100262.78;5355128;26;20235;-59
2024/04/16 09:18:48;;;;;;;9.30;1.52;;;;;;;10.85;93.37;100271.19;5361767;26;20266;-60
2024/04/16 09:21:14;;;;;;;9.57;1.83;;;;;;;10.47;94.49;100290.13;5346396;26;20270;-60
2024/04/16 09:23:39;;;;;;;12.85;2.10;;;;;;;10.81;96.79;100281.19;5351161;26;20243;-59
2024/04/16 09:26:14;;;;;;;11.32;2.13;;;;;;;11.36;93.00;100284.50;5352568;26;20235;-60
2024/04/16 09:28:49;;;;;;;10.55;1.65;;;;;;;11.01;93.54;100296.22;5353463;26;20302;-59
2024/04/16 09:31:18;;;;;;;11.55;2.50;;;;;;;11.03;91.99;100305.03;5380196;26;20289;-60
2024/04/16 09:33:46;;;;;;;6.95;1.80;;;;;;;11.11;92.30;100309.97;5352502;26;20239;-60
2024/04/16 09:36:15;;;;;;;10.02;2.28;;;;;;;10.98;91.25;100312.47;5352874;26;20243;-60
2024/04/16 09:38:45;;;;;;;6.28;1.48;;;;;;;11.02;90.89;100313.16;5337650;26;20334;-60
2024/04/16 09:41:11;;;;;;;13.25;3.60;;;;;;;10.71;91.04;100329.03;5352005;26;20604;-59
2024/04/16 09:43:40;;;;;;;10.02;2.10;;;;;;;10.80;92.08;100327.69;5353109;26;20243;-60
2024/04/16 09:46:08;;;;;;;6.97;1.48;;;;;;;10.84;91.10;100331.94;5354391;26;20238;-60
2024/04/16 09:48:34;;;;;;;7.47;2.53;;;;;;;11.01;89.34;100327.50;5355348;26;20604;-59
2024/04/16 09:51:04;;;;;;;6.32;1.55;;;;;;;10.59;88.28;100332.34;5353747;26;20281;-60
2024/04/16 09:53:29;;;;;;;6.80;1.50;;;;;;;10.73;90.16;100334.31;5357183;26;20244;-60
2024/04/16 09:55:56;;;;;;;7.47;1.70;;;;;;;10.62;93.01;100342.91;5357475;26;20247;-59
2024/04/16 09:58:23;;;;;;;5.40;1.52;;;;;;;10.27;90.12;100342.81;5382930;26;20239;-59
2024/04/16 10:00:49;;;;;;;7.70;1.60;;;;;;;10.31;90.34;100356.94;5353540;26;20639;-58
2024/04/16 10:03:15;;;;;;;7.82;1.58;;;;;;;10.24;91.42;100356.38;5351877;26;20413;-61
2024/04/16 10:05:40;;;;;;;7.55;1.25;;;;;;;10.37;91.64;100358.47;5351488;26;20281;-61
2024/04/16 10:08:06;;;;;;;8.07;1.95;;;;;;;10.26;91.21;100351.81;5352409;26;20353;-60
2024/04/16 10:10:31;;;;;;;8.00;2.72;;;;;;;10.53;92.19;100365.69;5352727;26;20239;-62
2024/04/16 10:12:57;;;;;;;4.50;1.60;;;;;;;10.54;91.43;100369.22;5350449;26;20235;-60
2024/04/16 10:15:22;;;;;;;4.47;1.48;;;;;;;10.46;92.75;100368.72;5351403;26;20333;-61
2024/04/16 10:17:52;;;;;;;4.22;1.73;;;;;;;10.23;91.43;100372.50;5344159;26;20315;-59
2024/04/16 10:20:20;;;;;;;5.93;1.88;;;;;;;10.29;91.78;100366.84;5351979;26;20314;-60
2024/04/16 10:22:59;;;;;;;6.53;1.80;;;;;;;10.41;93.36;100382.34;5349847;26;20238;-62
2024/04/16 10:25:28;;;;;;;13.10;1.60;;;;;;;10.47;94.65;100392.75;5351727;26;20238;-61
2024/04/16 10:27:53;;;;;;;4.57;1.48;;;;;;;10.70;95.27;100396.97;5347219;26;20251;-59
2024/04/16 10:30:19;;;;;;;6.40;1.98;;;;;;;10.41;94.41;100386.84;5335007;26;20712;-61
2024/04/16 10:32:46;;;;;;;4.40;1.55;;;;;;;10.66;95.43;100394.53;5330631;26;20266;-58
2024/04/16 10:35:18;;;;;;;6.97;1.73;;;;;;;10.66;94.85;100400.72;5352267;26;20690;-60
2024/04/16 10:37:48;;;;;;;6.97;1.38;;;;;;;10.55;96.90;100394.16;5349705;26;20620;-60
2024/04/16 10:40:27;;;;;;;3.30;1.50;;;;;;;10.49;95.58;100356.06;5351944;26;20804;-60
2024/04/16 10:42:56;;;;;;;7.65;1.70;;;;;;;10.52;97.81;100405.91;5348635;26;20243;-60
2024/04/16 10:45:22;;;;;;;6.95;2.58;;;;;;;10.61;98.02;100416.19;5350862;26;20288;-61
2024/04/16 10:47:52;;;;;;;6.72;1.70;;;;;;;10.48;98.89;100423.09;5331972;26;20231;-60
2024/04/16 10:50:17;;;;;;;8.13;1.95;;;;;;;10.18;99.88;100432.50;5351041;26;20740;-59
2024/04/16 10:52:43;;;;;;;9.50;2.08;;;;;;;9.96;100.00;100438.00;5351485;26;20231;-60
2024/04/16 10:55:09;;;;;;;6.78;2.45;;;;;;;10.10;100.00;100437.34;5350716;26;20294;-59
2024/04/16 10:57:34;;;;;;;7.35;2.30;;;;;;;9.89;100.00;100444.59;5350680;26;20239;-60
2024/04/16 11:00:00;;;;;;;8.93;2.45;;;;;;;9.63;100.00;100462.69;5351389;26;20729;-60
2024/04/16 11:02:26;;;;;;;15.48;3.45;;;;;;;9.62;100.00;100460.09;5350624;26;20239;-60
2024/04/16 11:04:51;;;;;;;14.98;3.60;;;;;;;9.75;100.00;100471.94;5350502;26;20401;-61
2024/04/16 11:07:17;;;;;;;23.98;4.78;;;;;;;9.36;100.00;100477.31;5356757;26;20271;-59
2024/04/16 11:09:42;;;;;;;18.98;4.78;;;;;;;9.19;100.00;100476.22;5342419;26;20278;-60
2024/04/16 11:12:11;;;;;;;22.00;4.68;;;;;;;9.24;100.00;100490.25;5359255;26;20426;-60
2024/04/16 11:14:36;;;;;;;13.75;4.13;;;;;;;9.56;100.00;100496.00;5338601;26;20298;-59
2024/04/16 11:17:03;;;;;;;13.95;4.60;;;;;;;9.81;100.00;100497.56;5359625;26;20243;-59
2024/04/16 11:19:29;;;;;;;24.15;4.80;;;;;;;9.42;100.00;100514.47;5396798;26;20274;-60
2024/04/16 11:21:54;;;;;;;15.48;3.45;;;;;;;9.50;100.00;100509.63;5356555;26;20234;-60